sensor_id;sensor_type;location;lat;lon;timestamp;P1;durP1;ratioP1;P2;durP2;ratioP2
56567;SDS011;42456;49.956;20.004;2024-02-14T00:00:54;28.00;;;13.20;;
56567;SDS011;42456;49.956;20.004;2024-02-14T00:03:22;28.70;;;14.50;;
56567;SDS011;42456;49.956;20.004;2024-02-14T00:05:50;29.10;;;13.70;;
56567;SDS011;42456;49.956;20.004;2024-02-14T00:08:19;28.60;;;13.80;;
56567;SDS011;42456;49.956;20.004;2024-02-14T00:10:47;25.60;;;12.50;;
56567;SDS011;42456;49.956;20.004;2024-02-14T00:13:15;26.10;;;13.60;;
56567;SDS011;42456;49.956;20.004;2024-02-14T00:15:45;25.70;;;13.60;;
56567;SDS011;42456;49.956;20.004;2024-02-14T00:18:13;26.60;;;13.10;;
56567;SDS011;42456;49.956;20.004;2024-02-14T00:20:42;31.30;;;15.70;;
56567;SDS011;42456;49.956;20.004;2024-02-14T00:23:09;34.20;;;16.30;;
56567;SDS011;42456;49.956;20.004;2024-02-14T00:25:36;32.10;;;14.70;;
56567;SDS011;42456;49.956;20.004;2024-02-14T00:28:03;31.60;;;15.40;;
56567;SDS011;42456;49.956;20.004;2024-02-14T00:30:32;30.70;;;14.70;;
56567;SDS011;42456;49.956;20.004;2024-02-14T00:32:59;26.40;;;14.20;;
56567;SDS011;42456;49.956;20.004;2024-02-14T00:35:26;29.30;;;13.40;;
56567;SDS011;42456;49.956;20.004;2024-02-14T00:37:53;30.00;;;14.10;;
56567;SDS011;42456;49.956;20.004;2024-02-14T00:40:20;29.20;;;14.40;;
56567;SDS011;42456;49.956;20.004;2024-02-14T00:42:47;29.70;;;14.80;;
56567;SDS011;42456;49.956;20.004;2024-02-14T00:45:14;26.80;;;14.30;;
56567;SDS011;42456;49.956;20.004;2024-02-14T00:47:41;27.50;;;14.50;;
56567;SDS011;42456;49.956;20.004;2024-02-14T00:50:08;27.30;;;14.00;;
56567;SDS011;42456;49.956;20.004;2024-02-14T00:52:35;31.30;;;15.20;;
56567;SDS011;42456;49.956;20.004;2024-02-14T00:55:03;28.00;;;13.80;;
56567;SDS011;42456;49.956;20.004;2024-02-14T00:57:31;28.40;;;13.40;;
56567;SDS011;42456;49.956;20.004;2024-02-14T00:59:59;30.90;;;13.90;;
56567;SDS011;42456;49.956;20.004;2024-02-14T01:02:27;31.40;;;13.00;;
56567;SDS011;42456;49.956;20.004;2024-02-14T01:04:54;25.30;;;12.70;;
56567;SDS011;42456;49.956;20.004;2024-02-14T01:07:21;28.20;;;14.20;;
56567;SDS011;42456;49.956;20.004;2024-02-14T01:09:48;26.50;;;12.90;;
56567;SDS011;42456;49.956;20.004;2024-02-14T01:12:16;25.40;;;13.00;;
56567;SDS011;42456;49.956;20.004;2024-02-14T01:14:43;24.70;;;12.10;;
56567;SDS011;42456;49.956;20.004;2024-02-14T01:17:10;27.60;;;12.60;;
56567;SDS011;42456;49.956;20.004;2024-02-14T01:19:37;27.20;;;12.70;;
56567;SDS011;42456;49.956;20.004;2024-02-14T01:22:04;24.50;;;11.90;;
56567;SDS011;42456;49.956;20.004;2024-02-14T01:24:31;24.70;;;12.00;;
56567;SDS011;42456;49.956;20.004;2024-02-14T01:26:58;23.20;;;12.20;;
56567;SDS011;42456;49.956;20.004;2024-02-14T01:29:25;25.90;;;11.70;;
56567;SDS011;42456;49.956;20.004;2024-02-14T01:31:52;23.00;;;12.40;;
56567;SDS011;42456;49.956;20.004;2024-02-14T01:34:19;24.20;;;11.30;;
56567;SDS011;42456;49.956;20.004;2024-02-14T01:36:47;24.50;;;11.00;;
56567;SDS011;42456;49.956;20.004;2024-02-14T01:39:14;20.00;;;10.40;;
56567;SDS011;42456;49.956;20.004;2024-02-14T01:41:45;24.80;;;11.20;;
56567;SDS011;42456;49.956;20.004;2024-02-14T01:44:18;21.70;;;10.70;;
56567;SDS011;42456;49.956;20.004;2024-02-14T01:46:45;23.40;;;12.00;;
56567;SDS011;42456;49.956;20.004;2024-02-14T01:49:11;22.80;;;11.00;;
56567;SDS011;42456;49.956;20.004;2024-02-14T01:51:40;22.40;;;10.30;;
56567;SDS011;42456;49.956;20.004;2024-02-14T01:54:11;23.80;;;10.90;;
56567;SDS011;42456;49.956;20.004;2024-02-14T01:56:39;21.60;;;10.70;;
56567;SDS011;42456;49.956;20.004;2024-02-14T01:59:07;23.10;;;11.00;;
56567;SDS011;42456;49.956;20.004;2024-02-14T02:01:36;24.10;;;11.40;;
56567;SDS011;42456;49.956;20.004;2024-02-14T02:04:03;24.60;;;11.20;;
56567;SDS011;42456;49.956;20.004;2024-02-14T02:06:31;24.10;;;11.00;;
56567;SDS011;42456;49.956;20.004;2024-02-14T02:08:59;22.30;;;11.40;;
56567;SDS011;42456;49.956;20.004;2024-02-14T02:11:27;26.50;;;12.60;;
56567;SDS011;42456;49.956;20.004;2024-02-14T02:13:54;23.40;;;10.90;;
56567;SDS011;42456;49.956;20.004;2024-02-14T02:16:21;22.00;;;11.30;;
56567;SDS011;42456;49.956;20.004;2024-02-14T02:18:48;21.40;;;10.30;;
56567;SDS011;42456;49.956;20.004;2024-02-14T02:21:16;19.00;;;9.10;;
56567;SDS011;42456;49.956;20.004;2024-02-14T02:26:14;19.00;;;8.30;;
56567;SDS011;42456;49.956;20.004;2024-02-14T02:28:41;19.80;;;9.50;;
56567;SDS011;42456;49.956;20.004;2024-02-14T02:31:09;20.10;;;9.10;;
56567;SDS011;42456;49.956;20.004;2024-02-14T02:33:37;21.00;;;10.10;;
56567;SDS011;42456;49.956;20.004;2024-02-14T02:36:04;21.60;;;10.90;;
56567;SDS011;42456;49.956;20.004;2024-02-14T02:38:33;20.70;;;9.50;;
56567;SDS011;42456;49.956;20.004;2024-02-14T02:41:00;20.70;;;9.30;;
56567;SDS011;42456;49.956;20.004;2024-02-14T02:43:27;21.60;;;10.40;;
56567;SDS011;42456;49.956;20.004;2024-02-14T02:45:54;19.50;;;8.60;;
56567;SDS011;42456;49.956;20.004;2024-02-14T02:48:21;16.40;;;8.70;;
56567;SDS011;42456;49.956;20.004;2024-02-14T02:50:50;18.90;;;8.70;;
56567;SDS011;42456;49.956;20.004;2024-02-14T02:53:18;19.30;;;8.90;;
56567;SDS011;42456;49.956;20.004;2024-02-14T02:55:45;19.80;;;9.40;;
56567;SDS011;42456;49.956;20.004;2024-02-14T02:58:12;20.10;;;8.60;;
56567;SDS011;42456;49.956;20.004;2024-02-14T03:00:40;17.60;;;8.50;;
56567;SDS011;42456;49.956;20.004;2024-02-14T03:03:09;19.70;;;9.50;;
56567;SDS011;42456;49.956;20.004;2024-02-14T03:05:37;17.50;;;8.80;;
56567;SDS011;42456;49.956;20.004;2024-02-14T03:08:05;18.10;;;8.70;;
56567;SDS011;42456;49.956;20.004;2024-02-14T03:10:34;20.50;;;9.00;;
56567;SDS011;42456;49.956;20.004;2024-02-14T03:13:01;21.50;;;9.90;;
56567;SDS011;42456;49.956;20.004;2024-02-14T03:15:28;21.50;;;9.40;;
56567;SDS011;42456;49.956;20.004;2024-02-14T03:17:55;20.00;;;9.90;;
56567;SDS011;42456;49.956;20.004;2024-02-14T03:20:22;21.10;;;9.60;;
56567;SDS011;42456;49.956;20.004;2024-02-14T03:22:50;21.40;;;10.00;;
56567;SDS011;42456;49.956;20.004;2024-02-14T03:25:17;20.80;;;9.70;;
56567;SDS011;42456;49.956;20.004;2024-02-14T03:27:45;19.30;;;9.50;;
56567;SDS011;42456;49.956;20.004;2024-02-14T03:30:14;18.80;;;9.20;;
56567;SDS011;42456;49.956;20.004;2024-02-14T03:32:43;19.90;;;9.10;;
56567;SDS011;42456;49.956;20.004;2024-02-14T03:35:11;18.90;;;9.00;;
56567;SDS011;42456;49.956;20.004;2024-02-14T03:37:41;20.00;;;9.10;;
56567;SDS011;42456;49.956;20.004;2024-02-14T03:40:10;19.20;;;8.70;;
56567;SDS011;42456;49.956;20.004;2024-02-14T03:42:38;18.60;;;9.30;;
56567;SDS011;42456;49.956;20.004;2024-02-14T03:45:08;21.50;;;8.80;;
56567;SDS011;42456;49.956;20.004;2024-02-14T03:47:36;19.90;;;8.80;;
56567;SDS011;42456;49.956;20.004;2024-02-14T03:50:10;18.60;;;8.00;;
56567;SDS011;42456;49.956;20.004;2024-02-14T03:52:37;18.70;;;8.60;;
56567;SDS011;42456;49.956;20.004;2024-02-14T03:55:04;18.10;;;8.40;;
56567;SDS011;42456;49.956;20.004;2024-02-14T03:57:32;20.30;;;8.40;;
56567;SDS011;42456;49.956;20.004;2024-02-14T04:00:02;18.30;;;8.10;;
56567;SDS011;42456;49.956;20.004;2024-02-14T04:02:30;19.30;;;8.50;;
56567;SDS011;42456;49.956;20.004;2024-02-14T04:04:58;18.20;;;7.90;;
56567;SDS011;42456;49.956;20.004;2024-02-14T04:07:26;19.70;;;8.10;;
56567;SDS011;42456;49.956;20.004;2024-02-14T04:09:53;17.00;;;8.50;;
56567;SDS011;42456;49.956;20.004;2024-02-14T04:12:20;20.70;;;8.80;;
56567;SDS011;42456;49.956;20.004;2024-02-14T04:14:47;16.40;;;7.90;;
56567;SDS011;42456;49.956;20.004;2024-02-14T04:17:14;19.40;;;7.70;;
56567;SDS011;42456;49.956;20.004;2024-02-14T04:19:41;17.40;;;8.40;;
56567;SDS011;42456;49.956;20.004;2024-02-14T04:22:08;16.60;;;8.00;;
56567;SDS011;42456;49.956;20.004;2024-02-14T04:24:35;19.50;;;9.30;;
56567;SDS011;42456;49.956;20.004;2024-02-14T04:27:02;21.00;;;11.50;;
56567;SDS011;42456;49.956;20.004;2024-02-14T04:29:32;20.90;;;9.80;;
56567;SDS011;42456;49.956;20.004;2024-02-14T04:32:01;17.20;;;8.80;;
56567;SDS011;42456;49.956;20.004;2024-02-14T04:34:29;15.50;;;8.20;;
56567;SDS011;42456;49.956;20.004;2024-02-14T04:36:57;17.30;;;8.60;;
56567;SDS011;42456;49.956;20.004;2024-02-14T04:39:24;17.20;;;8.10;;
56567;SDS011;42456;49.956;20.004;2024-02-14T04:41:51;19.00;;;8.70;;
56567;SDS011;42456;49.956;20.004;2024-02-14T04:44:31;20.40;;;8.60;;
56567;SDS011;42456;49.956;20.004;2024-02-14T04:46:59;19.60;;;9.10;;
56567;SDS011;42456;49.956;20.004;2024-02-14T04:49:29;19.10;;;8.80;;
56567;SDS011;42456;49.956;20.004;2024-02-14T04:51:56;18.90;;;8.20;;
56567;SDS011;42456;49.956;20.004;2024-02-14T04:54:24;16.60;;;7.70;;
56567;SDS011;42456;49.956;20.004;2024-02-14T04:56:53;18.30;;;8.90;;
56567;SDS011;42456;49.956;20.004;2024-02-14T04:59:25;15.00;;;7.40;;
56567;SDS011;42456;49.956;20.004;2024-02-14T05:01:52;19.20;;;8.30;;
56567;SDS011;42456;49.956;20.004;2024-02-14T05:04:20;16.10;;;7.50;;
56567;SDS011;42456;49.956;20.004;2024-02-14T05:06:47;16.90;;;7.60;;
56567;SDS011;42456;49.956;20.004;2024-02-14T05:09:19;17.70;;;7.60;;
56567;SDS011;42456;49.956;20.004;2024-02-14T05:11:46;17.50;;;7.30;;
56567;SDS011;42456;49.956;20.004;2024-02-14T05:14:13;17.30;;;7.50;;
56567;SDS011;42456;49.956;20.004;2024-02-14T05:16:39;16.40;;;7.70;;
56567;SDS011;42456;49.956;20.004;2024-02-14T05:19:07;19.60;;;9.00;;
56567;SDS011;42456;49.956;20.004;2024-02-14T05:21:34;18.30;;;8.90;;
56567;SDS011;42456;49.956;20.004;2024-02-14T05:24:01;16.90;;;8.50;;
56567;SDS011;42456;49.956;20.004;2024-02-14T05:26:28;16.70;;;8.30;;
56567;SDS011;42456;49.956;20.004;2024-02-14T05:28:55;17.40;;;8.00;;
56567;SDS011;42456;49.956;20.004;2024-02-14T05:31:22;18.00;;;7.60;;
56567;SDS011;42456;49.956;20.004;2024-02-14T05:33:50;16.40;;;7.50;;
56567;SDS011;42456;49.956;20.004;2024-02-14T05:36:17;16.00;;;7.30;;
56567;SDS011;42456;49.956;20.004;2024-02-14T05:38:44;16.70;;;7.70;;
56567;SDS011;42456;49.956;20.004;2024-02-14T05:41:11;18.70;;;8.20;;
56567;SDS011;42456;49.956;20.004;2024-02-14T05:43:39;18.10;;;8.40;;
56567;SDS011;42456;49.956;20.004;2024-02-14T05:46:05;19.80;;;8.40;;
56567;SDS011;42456;49.956;20.004;2024-02-14T05:48:32;16.50;;;7.50;;
56567;SDS011;42456;49.956;20.004;2024-02-14T05:50:59;14.70;;;7.60;;
56567;SDS011;42456;49.956;20.004;2024-02-14T05:53:26;18.00;;;8.20;;
56567;SDS011;42456;49.956;20.004;2024-02-14T05:55:53;23.90;;;9.30;;
56567;SDS011;42456;49.956;20.004;2024-02-14T05:58:20;18.50;;;8.50;;
56567;SDS011;42456;49.956;20.004;2024-02-14T06:00:47;20.50;;;9.20;;
56567;SDS011;42456;49.956;20.004;2024-02-14T06:03:14;22.80;;;9.10;;
56567;SDS011;42456;49.956;20.004;2024-02-14T06:05:41;20.10;;;8.10;;
56567;SDS011;42456;49.956;20.004;2024-02-14T06:08:08;17.20;;;8.00;;
56567;SDS011;42456;49.956;20.004;2024-02-14T06:10:34;18.10;;;8.20;;
56567;SDS011;42456;49.956;20.004;2024-02-14T06:13:01;17.00;;;8.00;;
56567;SDS011;42456;49.956;20.004;2024-02-14T06:15:29;19.50;;;8.00;;
56567;SDS011;42456;49.956;20.004;2024-02-14T06:17:55;17.80;;;8.10;;
56567;SDS011;42456;49.956;20.004;2024-02-14T06:20:22;18.30;;;8.30;;
56567;SDS011;42456;49.956;20.004;2024-02-14T06:22:50;18.60;;;7.90;;
56567;SDS011;42456;49.956;20.004;2024-02-14T06:25:30;15.50;;;7.60;;
56567;SDS011;42456;49.956;20.004;2024-02-14T06:27:56;18.90;;;8.60;;
56567;SDS011;42456;49.956;20.004;2024-02-14T06:30:23;19.50;;;9.10;;
56567;SDS011;42456;49.956;20.004;2024-02-14T06:32:55;18.60;;;9.10;;
56567;SDS011;42456;49.956;20.004;2024-02-14T06:35:23;21.60;;;9.40;;
56567;SDS011;42456;49.956;20.004;2024-02-14T06:37:51;20.00;;;8.10;;
56567;SDS011;42456;49.956;20.004;2024-02-14T06:40:28;17.70;;;8.50;;
56567;SDS011;42456;49.956;20.004;2024-02-14T06:42:56;19.60;;;8.80;;
56567;SDS011;42456;49.956;20.004;2024-02-14T06:45:28;19.10;;;8.40;;
56567;SDS011;42456;49.956;20.004;2024-02-14T06:47:55;19.90;;;9.60;;
56567;SDS011;42456;49.956;20.004;2024-02-14T06:50:23;19.60;;;9.90;;
56567;SDS011;42456;49.956;20.004;2024-02-14T06:52:52;18.70;;;8.50;;
56567;SDS011;42456;49.956;20.004;2024-02-14T06:55:19;21.30;;;9.40;;
56567;SDS011;42456;49.956;20.004;2024-02-14T06:57:47;23.10;;;10.00;;
56567;SDS011;42456;49.956;20.004;2024-02-14T07:00:14;21.10;;;9.50;;
56567;SDS011;42456;49.956;20.004;2024-02-14T07:02:41;21.10;;;10.10;;
56567;SDS011;42456;49.956;20.004;2024-02-14T07:05:09;23.10;;;11.00;;
56567;SDS011;42456;49.956;20.004;2024-02-14T07:07:39;25.10;;;11.00;;
56567;SDS011;42456;49.956;20.004;2024-02-14T07:10:06;24.20;;;12.10;;
56567;SDS011;42456;49.956;20.004;2024-02-14T07:12:34;23.50;;;10.90;;
56567;SDS011;42456;49.956;20.004;2024-02-14T07:15:05;26.60;;;12.70;;
56567;SDS011;42456;49.956;20.004;2024-02-14T07:17:33;29.30;;;12.80;;
56567;SDS011;42456;49.956;20.004;2024-02-14T07:20:01;25.80;;;11.30;;
56567;SDS011;42456;49.956;20.004;2024-02-14T07:22:29;23.30;;;10.80;;
56567;SDS011;42456;49.956;20.004;2024-02-14T07:24:57;21.60;;;9.90;;
56567;SDS011;42456;49.956;20.004;2024-02-14T07:27:24;21.30;;;10.70;;
56567;SDS011;42456;49.956;20.004;2024-02-14T07:29:51;24.90;;;10.90;;
56567;SDS011;42456;49.956;20.004;2024-02-14T07:32:18;22.90;;;9.80;;
56567;SDS011;42456;49.956;20.004;2024-02-14T07:34:45;18.40;;;8.40;;
56567;SDS011;42456;49.956;20.004;2024-02-14T07:37:12;21.80;;;9.90;;
56567;SDS011;42456;49.956;20.004;2024-02-14T07:39:42;21.10;;;9.40;;
56567;SDS011;42456;49.956;20.004;2024-02-14T07:42:08;18.80;;;9.70;;
56567;SDS011;42456;49.956;20.004;2024-02-14T07:44:35;20.70;;;9.10;;
56567;SDS011;42456;49.956;20.004;2024-02-14T07:47:02;19.20;;;8.30;;
56567;SDS011;42456;49.956;20.004;2024-02-14T07:49:32;19.60;;;9.20;;
56567;SDS011;42456;49.956;20.004;2024-02-14T07:51:59;19.00;;;9.40;;
56567;SDS011;42456;49.956;20.004;2024-02-14T07:54:26;21.70;;;9.00;;
56567;SDS011;42456;49.956;20.004;2024-02-14T07:56:53;24.50;;;10.20;;
56567;SDS011;42456;49.956;20.004;2024-02-14T07:59:20;19.20;;;9.30;;
56567;SDS011;42456;49.956;20.004;2024-02-14T08:01:47;18.70;;;9.30;;
56567;SDS011;42456;49.956;20.004;2024-02-14T08:04:14;19.20;;;8.90;;
56567;SDS011;42456;49.956;20.004;2024-02-14T08:06:44;18.60;;;7.90;;
56567;SDS011;42456;49.956;20.004;2024-02-14T08:09:12;15.50;;;7.10;;
56567;SDS011;42456;49.956;20.004;2024-02-14T08:11:40;17.90;;;7.90;;
56567;SDS011;42456;49.956;20.004;2024-02-14T08:14:07;16.40;;;8.30;;
56567;SDS011;42456;49.956;20.004;2024-02-14T08:16:35;15.90;;;7.40;;
56567;SDS011;42456;49.956;20.004;2024-02-14T08:19:02;15.20;;;6.40;;
56567;SDS011;42456;49.956;20.004;2024-02-14T08:21:30;13.80;;;5.90;;
56567;SDS011;42456;49.956;20.004;2024-02-14T08:23:58;10.30;;;5.10;;
56567;SDS011;42456;49.956;20.004;2024-02-14T08:26:28;10.60;;;4.50;;
56567;SDS011;42456;49.956;20.004;2024-02-14T08:28:55;7.50;;;3.30;;
56567;SDS011;42456;49.956;20.004;2024-02-14T08:31:22;7.30;;;3.40;;
56567;SDS011;42456;49.956;20.004;2024-02-14T08:33:49;4.40;;;2.90;;
56567;SDS011;42456;49.956;20.004;2024-02-14T08:36:17;4.60;;;2.30;;
56567;SDS011;42456;49.956;20.004;2024-02-14T08:38:46;2.70;;;1.80;;
56567;SDS011;42456;49.956;20.004;2024-02-14T08:41:14;5.00;;;1.80;;
56567;SDS011;42456;49.956;20.004;2024-02-14T08:43:41;6.70;;;4.10;;
56567;SDS011;42456;49.956;20.004;2024-02-14T08:46:13;2.90;;;2.10;;
56567;SDS011;42456;49.956;20.004;2024-02-14T08:48:41;3.10;;;1.90;;
56567;SDS011;42456;49.956;20.004;2024-02-14T08:51:15;2.80;;;1.80;;
56567;SDS011;42456;49.956;20.004;2024-02-14T08:53:44;3.90;;;2.30;;
56567;SDS011;42456;49.956;20.004;2024-02-14T08:56:12;4.90;;;2.40;;
56567;SDS011;42456;49.956;20.004;2024-02-14T08:58:40;5.80;;;2.30;;
56567;SDS011;42456;49.956;20.004;2024-02-14T09:01:08;1.60;;;1.50;;
56567;SDS011;42456;49.956;20.004;2024-02-14T09:03:41;2.70;;;2.00;;
56567;SDS011;42456;49.956;20.004;2024-02-14T09:06:16;2.50;;;1.80;;
56567;SDS011;42456;49.956;20.004;2024-02-14T09:08:48;1.20;;;1.00;;
56567;SDS011;42456;49.956;20.004;2024-02-14T09:11:18;4.20;;;1.50;;
56567;SDS011;42456;49.956;20.004;2024-02-14T09:13:45;2.60;;;1.60;;
56567;SDS011;42456;49.956;20.004;2024-02-14T09:16:17;4.90;;;1.80;;
56567;SDS011;42456;49.956;20.004;2024-02-14T09:18:45;6.10;;;1.80;;
56567;SDS011;42456;49.956;20.004;2024-02-14T09:21:13;2.10;;;1.60;;
56567;SDS011;42456;49.956;20.004;2024-02-14T09:23:44;3.70;;;1.50;;
56567;SDS011;42456;49.956;20.004;2024-02-14T09:26:13;3.40;;;1.50;;
56567;SDS011;42456;49.956;20.004;2024-02-14T09:28:40;4.10;;;1.80;;
56567;SDS011;42456;49.956;20.004;2024-02-14T09:31:07;1.80;;;1.50;;
56567;SDS011;42456;49.956;20.004;2024-02-14T09:36:04;5.20;;;2.20;;
56567;SDS011;42456;49.956;20.004;2024-02-14T09:38:32;6.20;;;2.10;;
56567;SDS011;42456;49.956;20.004;2024-02-14T09:41:02;2.50;;;1.70;;
56567;SDS011;42456;49.956;20.004;2024-02-14T09:43:36;3.90;;;1.90;;
56567;SDS011;42456;49.956;20.004;2024-02-14T09:46:07;3.70;;;1.80;;
56567;SDS011;42456;49.956;20.004;2024-02-14T09:48:35;3.50;;;2.10;;
56567;SDS011;42456;49.956;20.004;2024-02-14T09:51:05;3.40;;;1.60;;
56567;SDS011;42456;49.956;20.004;2024-02-14T09:53:33;3.00;;;1.90;;
56567;SDS011;42456;49.956;20.004;2024-02-14T09:56:01;3.70;;;2.20;;
56567;SDS011;42456;49.956;20.004;2024-02-14T09:58:30;2.50;;;1.80;;
56567;SDS011;42456;49.956;20.004;2024-02-14T10:00:58;3.60;;;1.90;;
56567;SDS011;42456;49.956;20.004;2024-02-14T10:03:25;2.50;;;1.80;;
56567;SDS011;42456;49.956;20.004;2024-02-14T10:05:53;3.70;;;1.80;;
56567;SDS011;42456;49.956;20.004;2024-02-14T10:08:21;2.50;;;1.70;;
56567;SDS011;42456;49.956;20.004;2024-02-14T10:10:49;3.40;;;2.10;;
56567;SDS011;42456;49.956;20.004;2024-02-14T10:13:22;6.10;;;2.20;;
56567;SDS011;42456;49.956;20.004;2024-02-14T10:15:49;6.30;;;1.80;;
56567;SDS011;42456;49.956;20.004;2024-02-14T10:18:16;3.50;;;1.90;;
56567;SDS011;42456;49.956;20.004;2024-02-14T10:20:56;3.30;;;2.00;;
56567;SDS011;42456;49.956;20.004;2024-02-14T10:23:24;3.70;;;1.90;;
56567;SDS011;42456;49.956;20.004;2024-02-14T10:25:53;5.00;;;1.80;;
56567;SDS011;42456;49.956;20.004;2024-02-14T10:28:23;3.70;;;2.20;;
56567;SDS011;42456;49.956;20.004;2024-02-14T10:31:02;3.50;;;1.80;;
56567;SDS011;42456;49.956;20.004;2024-02-14T10:35:59;2.90;;;2.00;;
56567;SDS011;42456;49.956;20.004;2024-02-14T10:38:31;4.40;;;1.80;;
56567;SDS011;42456;49.956;20.004;2024-02-14T10:41:02;4.30;;;1.80;;
56567;SDS011;42456;49.956;20.004;2024-02-14T10:43:32;2.30;;;1.70;;
56567;SDS011;42456;49.956;20.004;2024-02-14T10:46:00;2.80;;;1.70;;
56567;SDS011;42456;49.956;20.004;2024-02-14T10:48:34;3.20;;;1.80;;
56567;SDS011;42456;49.956;20.004;2024-02-14T10:51:05;2.70;;;1.80;;
56567;SDS011;42456;49.956;20.004;2024-02-14T10:53:35;4.30;;;1.90;;
56567;SDS011;42456;49.956;20.004;2024-02-14T10:56:08;4.80;;;2.20;;
56567;SDS011;42456;49.956;20.004;2024-02-14T10:58:39;2.50;;;1.80;;
56567;SDS011;42456;49.956;20.004;2024-02-14T11:01:08;3.50;;;1.70;;
56567;SDS011;42456;49.956;20.004;2024-02-14T11:03:36;5.10;;;1.90;;
56567;SDS011;42456;49.956;20.004;2024-02-14T11:06:03;2.30;;;2.00;;
56567;SDS011;42456;49.956;20.004;2024-02-14T11:08:31;3.50;;;1.90;;
56567;SDS011;42456;49.956;20.004;2024-02-14T11:11:00;4.70;;;2.00;;
56567;SDS011;42456;49.956;20.004;2024-02-14T11:13:31;2.80;;;1.80;;
56567;SDS011;42456;49.956;20.004;2024-02-14T11:16:01;3.30;;;2.00;;
56567;SDS011;42456;49.956;20.004;2024-02-14T11:18:31;3.70;;;1.90;;
56567;SDS011;42456;49.956;20.004;2024-02-14T11:21:02;2.60;;;1.60;;
56567;SDS011;42456;49.956;20.004;2024-02-14T11:23:31;5.60;;;2.40;;
56567;SDS011;42456;49.956;20.004;2024-02-14T11:25:59;3.40;;;2.00;;
56567;SDS011;42456;49.956;20.004;2024-02-14T11:28:31;4.40;;;2.30;;
56567;SDS011;42456;49.956;20.004;2024-02-14T11:31:01;3.80;;;1.70;;
56567;SDS011;42456;49.956;20.004;2024-02-14T11:33:31;3.60;;;2.00;;
56567;SDS011;42456;49.956;20.004;2024-02-14T11:36:00;4.40;;;1.80;;
56567;SDS011;42456;49.956;20.004;2024-02-14T11:38:36;2.70;;;1.90;;
56567;SDS011;42456;49.956;20.004;2024-02-14T11:41:03;1.90;;;1.70;;
56567;SDS011;42456;49.956;20.004;2024-02-14T11:43:33;3.60;;;1.90;;
56567;SDS011;42456;49.956;20.004;2024-02-14T11:46:00;5.40;;;2.10;;
56567;SDS011;42456;49.956;20.004;2024-02-14T11:48:27;5.60;;;2.10;;
56567;SDS011;42456;49.956;20.004;2024-02-14T11:50:55;2.20;;;1.30;;
56567;SDS011;42456;49.956;20.004;2024-02-14T11:53:22;2.70;;;2.00;;
56567;SDS011;42456;49.956;20.004;2024-02-14T11:55:50;2.70;;;1.90;;
56567;SDS011;42456;49.956;20.004;2024-02-14T11:58:17;4.60;;;2.00;;
56567;SDS011;42456;49.956;20.004;2024-02-14T12:00:45;5.60;;;2.30;;
56567;SDS011;42456;49.956;20.004;2024-02-14T12:03:16;3.00;;;2.00;;
56567;SDS011;42456;49.956;20.004;2024-02-14T12:05:45;3.70;;;2.30;;
56567;SDS011;42456;49.956;20.004;2024-02-14T12:08:14;3.60;;;1.90;;
56567;SDS011;42456;49.956;20.004;2024-02-14T12:10:42;6.10;;;2.50;;
56567;SDS011;42456;49.956;20.004;2024-02-14T12:13:13;8.10;;;2.30;;
56567;SDS011;42456;49.956;20.004;2024-02-14T12:15:45;3.00;;;1.90;;
56567;SDS011;42456;49.956;20.004;2024-02-14T12:18:13;5.20;;;2.20;;
56567;SDS011;42456;49.956;20.004;2024-02-14T12:20:41;4.20;;;2.00;;
56567;SDS011;42456;49.956;20.004;2024-02-14T12:23:16;3.90;;;2.30;;
56567;SDS011;42456;49.956;20.004;2024-02-14T12:25:45;3.50;;;2.30;;
56567;SDS011;42456;49.956;20.004;2024-02-14T12:28:16;5.00;;;2.20;;
56567;SDS011;42456;49.956;20.004;2024-02-14T12:30:48;3.80;;;2.00;;
56567;SDS011;42456;49.956;20.004;2024-02-14T12:33:17;4.90;;;2.20;;
56567;SDS011;42456;49.956;20.004;2024-02-14T12:35:45;5.70;;;2.60;;
56567;SDS011;42456;49.956;20.004;2024-02-14T12:38:14;5.00;;;2.40;;
56567;SDS011;42456;49.956;20.004;2024-02-14T12:40:42;4.60;;;2.40;;
56567;SDS011;42456;49.956;20.004;2024-02-14T12:43:13;5.20;;;2.30;;
56567;SDS011;42456;49.956;20.004;2024-02-14T12:45:42;4.90;;;2.10;;
56567;SDS011;42456;49.956;20.004;2024-02-14T12:48:11;3.50;;;1.90;;
56567;SDS011;42456;49.956;20.004;2024-02-14T12:50:40;2.60;;;1.80;;
56567;SDS011;42456;49.956;20.004;2024-02-14T12:53:14;9.60;;;2.40;;
56567;SDS011;42456;49.956;20.004;2024-02-14T12:55:41;3.90;;;2.10;;
56567;SDS011;42456;49.956;20.004;2024-02-14T12:58:08;4.60;;;2.20;;
56567;SDS011;42456;49.956;20.004;2024-02-14T13:00:36;3.60;;;1.80;;
56567;SDS011;42456;49.956;20.004;2024-02-14T13:03:04;4.40;;;1.70;;
56567;SDS011;42456;49.956;20.004;2024-02-14T13:05:32;3.30;;;1.60;;
56567;SDS011;42456;49.956;20.004;2024-02-14T13:08:00;3.00;;;2.10;;
56567;SDS011;42456;49.956;20.004;2024-02-14T13:10:27;6.10;;;2.80;;
56567;SDS011;42456;49.956;20.004;2024-02-14T13:12:55;6.60;;;2.80;;
56567;SDS011;42456;49.956;20.004;2024-02-14T13:15:26;9.10;;;3.90;;
56567;SDS011;42456;49.956;20.004;2024-02-14T13:17:53;22.80;;;12.30;;
56567;SDS011;42456;49.956;20.004;2024-02-14T13:20:20;10.30;;;4.70;;
56567;SDS011;42456;49.956;20.004;2024-02-14T13:22:47;11.00;;;5.00;;
56567;SDS011;42456;49.956;20.004;2024-02-14T13:25:14;9.40;;;4.20;;
56567;SDS011;42456;49.956;20.004;2024-02-14T13:27:43;5.50;;;2.50;;
56567;SDS011;42456;49.956;20.004;2024-02-14T13:30:11;5.60;;;2.40;;
56567;SDS011;42456;49.956;20.004;2024-02-14T13:32:38;5.10;;;2.10;;
56567;SDS011;42456;49.956;20.004;2024-02-14T13:35:06;5.40;;;2.40;;
56567;SDS011;42456;49.956;20.004;2024-02-14T13:37:33;5.40;;;3.20;;
56567;SDS011;42456;49.956;20.004;2024-02-14T13:40:01;3.70;;;2.20;;
56567;SDS011;42456;49.956;20.004;2024-02-14T13:42:30;5.70;;;2.30;;
56567;SDS011;42456;49.956;20.004;2024-02-14T13:44:57;5.80;;;2.40;;
56567;SDS011;42456;49.956;20.004;2024-02-14T13:47:24;5.00;;;2.40;;
56567;SDS011;42456;49.956;20.004;2024-02-14T13:49:51;3.30;;;2.30;;
56567;SDS011;42456;49.956;20.004;2024-02-14T13:52:19;4.20;;;2.00;;
56567;SDS011;42456;49.956;20.004;2024-02-14T13:54:46;3.10;;;1.90;;
56567;SDS011;42456;49.956;20.004;2024-02-14T13:57:13;6.50;;;2.50;;
56567;SDS011;42456;49.956;20.004;2024-02-14T13:59:44;3.90;;;2.80;;
56567;SDS011;42456;49.956;20.004;2024-02-14T14:02:12;4.20;;;2.50;;
56567;SDS011;42456;49.956;20.004;2024-02-14T14:04:39;3.30;;;2.30;;
56567;SDS011;42456;49.956;20.004;2024-02-14T14:07:06;7.20;;;2.80;;
56567;SDS011;42456;49.956;20.004;2024-02-14T14:09:35;6.40;;;2.80;;
56567;SDS011;42456;49.956;20.004;2024-02-14T14:12:02;5.00;;;2.90;;
56567;SDS011;42456;49.956;20.004;2024-02-14T14:14:29;6.20;;;2.90;;
56567;SDS011;42456;49.956;20.004;2024-02-14T14:16:56;6.00;;;2.90;;
56567;SDS011;42456;49.956;20.004;2024-02-14T14:19:24;5.20;;;2.80;;
56567;SDS011;42456;49.956;20.004;2024-02-14T14:21:51;6.30;;;2.80;;
56567;SDS011;42456;49.956;20.004;2024-02-14T14:24:18;4.70;;;2.40;;
56567;SDS011;42456;49.956;20.004;2024-02-14T14:26:45;5.70;;;3.00;;
56567;SDS011;42456;49.956;20.004;2024-02-14T14:29:12;7.00;;;3.40;;
56567;SDS011;42456;49.956;20.004;2024-02-14T14:31:39;6.20;;;3.30;;
56567;SDS011;42456;49.956;20.004;2024-02-14T14:34:06;6.00;;;3.20;;
56567;SDS011;42456;49.956;20.004;2024-02-14T14:36:34;7.20;;;3.40;;